Time;durP1;ratioP1;P1;durP2;ratioP2;P2;SDS_P1;SDS_P2;PMS_P1;PMS_P2;Temp;Humidity;BMP_temperature;BMP_pressure;BME280_temperature;BME280_humidity;BME280_pressure;Samples;Min_cycle;Max_cycle;Signal;HPM_P1;HPM_P2
2023/03/21 00:01:31;;;;;;;32.40;25.67;;;;;;;;;;5114822;28;20077;-74
2023/03/21 00:03:57;;;;;;;32.80;25.83;;;;;;;;;;5114590;28;20024;-74
2023/03/21 00:06:23;;;;;;;31.13;24.75;;;;;;;;;;5114150;28;20028;-75
2023/03/21 00:08:49;;;;;;;29.73;25.10;;;;;;;;;;5115257;28;20185;-73
2023/03/21 00:11:15;;;;;;;32.63;26.10;;;;;;;;;;5125208;28;20034;-73
2023/03/21 00:13:42;;;;;;;31.25;24.98;;;;;;;;;;5132367;28;20052;-73
2023/03/21 00:16:15;;;;;;;31.23;25.58;;;;;;;;;;5136101;28;20030;-74
2023/03/21 00:18:51;;;;;;;34.47;26.80;;;;;;;;;;5135885;28;20091;-72
2023/03/21 00:21:21;;;;;;;32.53;26.67;;;;;;;;;;5119292;28;20546;-72
2023/03/21 00:23:47;;;;;;;37.35;27.38;;;;;;;;;;5113107;28;20063;-73
2023/03/21 00:26:14;;;;;;;35.85;27.45;;;;;;;;;;5113725;28;20053;-72
2023/03/21 00:28:41;;;;;;;35.10;27.95;;;;;;;;;;5113365;28;20103;-73
2023/03/21 00:31:07;;;;;;;34.00;27.08;;;;;;;;;;5113503;28;20031;-73
2023/03/21 00:33:34;;;;;;;36.80;28.92;;;;;;;;;;5113395;28;20080;-73
2023/03/21 00:36:00;;;;;;;37.30;27.65;;;;;;;;;;5113521;28;20024;-73
2023/03/21 00:38:27;;;;;;;36.28;27.55;;;;;;;;;;5095312;28;20024;-73
2023/03/21 00:40:53;;;;;;;36.50;28.38;;;;;;;;;;5113281;28;20027;-74
2023/03/21 00:43:22;;;;;;;37.78;28.38;;;;;;;;;;5113347;28;20022;-74
2023/03/21 00:45:48;;;;;;;39.22;29.63;;;;;;;;;;5113625;28;20456;-73
2023/03/21 00:48:14;;;;;;;37.38;29.58;;;;;;;;;;5113422;28;20111;-73
2023/03/21 00:50:44;;;;;;;42.88;31.65;;;;;;;;;;5113337;28;20042;-73
2023/03/21 00:53:10;;;;;;;41.03;31.20;;;;;;;;;;5113090;28;20048;-73
2023/03/21 00:55:37;;;;;;;42.47;31.17;;;;;;;;;;5113287;28;20074;-73
2023/03/21 00:58:03;;;;;;;42.80;33.42;;;;;;;;;;5113167;28;20103;-73
2023/03/21 01:00:30;;;;;;;43.83;31.65;;;;;;;;;;5111332;28;20024;-73
2023/03/21 01:02:56;;;;;;;44.28;33.05;;;;;;;;;;5108406;28;20019;-73
2023/03/21 01:06:01;;;;;;;44.72;34.45;;;;;;;;;;5112627;28;20038;-72
2023/03/21 01:08:11;;;;;;;45.38;34.00;;;;;;;;;;5112731;28;20122;-72
2023/03/21 01:10:41;;;;;;;46.63;36.08;;;;;;;;;;5112556;28;20016;-73
2023/03/21 01:13:07;;;;;;;47.25;33.78;;;;;;;;;;5112551;28;20496;-73
2023/03/21 01:15:34;;;;;;;46.42;35.60;;;;;;;;;;5114471;28;20027;-73
2023/03/21 01:18:00;;;;;;;48.95;36.10;;;;;;;;;;5117184;28;20489;-72
2023/03/21 01:20:26;;;;;;;53.03;38.47;;;;;;;;;;5117000;28;20028;-71
2023/03/21 01:22:52;;;;;;;52.67;37.85;;;;;;;;;;5116695;28;20370;-73
2023/03/21 01:25:18;;;;;;;49.83;37.47;;;;;;;;;;5117039;28;20027;-74
2023/03/21 01:27:44;;;;;;;50.45;38.15;;;;;;;;;;5113549;28;20032;-73
2023/03/21 01:30:10;;;;;;;51.63;38.10;;;;;;;;;;5113141;28;20020;-73
2023/03/21 01:32:36;;;;;;;54.75;39.65;;;;;;;;;;5112796;28;20020;-73
2023/03/21 01:35:03;;;;;;;52.50;39.63;;;;;;;;;;5113003;28;20027;-73
2023/03/21 01:37:29;;;;;;;50.53;37.67;;;;;;;;;;5112882;28;20130;-74
2023/03/21 01:39:55;;;;;;;52.78;39.80;;;;;;;;;;5113001;28;20031;-73
2023/03/21 01:42:21;;;;;;;53.50;39.55;;;;;;;;;;5112409;28;20039;-73
2023/03/21 01:44:58;;;;;;;53.72;40.20;;;;;;;;;;5112427;28;20032;-74
2023/03/21 01:47:24;;;;;;;55.65;41.05;;;;;;;;;;5112464;28;20031;-74
2023/03/21 01:49:52;;;;;;;59.20;41.15;;;;;;;;;;5112825;28;20024;-75
2023/03/21 01:52:22;;;;;;;52.83;39.75;;;;;;;;;;5112738;28;20023;-74
2023/03/21 01:54:49;;;;;;;56.72;41.28;;;;;;;;;;5113764;28;20016;-72
2023/03/21 01:57:22;;;;;;;60.40;44.05;;;;;;;;;;5115168;28;20041;-73
2023/03/21 01:59:49;;;;;;;56.03;41.55;;;;;;;;;;5117804;28;20028;-71
2023/03/21 02:02:36;;;;;;;59.08;41.65;;;;;;;;;;5127475;28;20027;-73
2023/03/21 02:05:02;;;;;;;61.00;43.65;;;;;;;;;;5132218;28;20030;-74
2023/03/21 02:07:30;;;;;;;58.13;42.22;;;;;;;;;;5131271;28;20038;-71
2023/03/21 02:09:57;;;;;;;59.35;42.80;;;;;;;;;;5126492;28;20024;-73
2023/03/21 02:12:23;;;;;;;58.13;42.55;;;;;;;;;;5112468;28;20035;-73
2023/03/21 02:14:51;;;;;;;57.30;43.33;;;;;;;;;;5111840;28;20023;-74
2023/03/21 02:17:37;;;;;;;63.03;43.13;;;;;;;;;;5110877;28;20087;-73
2023/03/21 02:20:07;;;;;;;60.95;44.83;;;;;;;;;;5111758;28;20114;-73
2023/03/21 02:22:36;;;;;;;61.20;44.88;;;;;;;;;;5113011;28;20027;-73
2023/03/21 02:25:11;;;;;;;61.97;45.83;;;;;;;;;;5115570;28;20031;-73
2023/03/21 02:27:38;;;;;;;62.35;45.65;;;;;;;;;;5115395;28;20028;-72
2023/03/21 02:30:10;;;;;;;65.55;45.78;;;;;;;;;;5115351;28;20111;-72
2023/03/21 02:32:45;;;;;;;61.97;45.85;;;;;;;;;;5115138;28;20099;-73
2023/03/21 02:35:17;;;;;;;63.60;46.47;;;;;;;;;;5115311;28;20027;-72
2023/03/21 02:37:43;;;;;;;63.17;46.05;;;;;;;;;;5115312;28;20062;-72
2023/03/21 02:40:28;;;;;;;64.78;46.80;;;;;;;;;;5112925;28;20052;-73
2023/03/21 02:42:56;;;;;;;67.93;47.67;;;;;;;;;;5115198;28;20038;-72
2023/03/21 02:45:27;;;;;;;67.28;46.63;;;;;;;;;;5125588;27;20503;-73
2023/03/21 02:48:03;;;;;;;66.45;47.72;;;;;;;;;;5135464;27;20023;-73
2023/03/21 02:50:36;;;;;;;69.97;48.65;;;;;;;;;;5135373;27;20023;-73
2023/03/21 02:53:03;;;;;;;67.25;48.17;;;;;;;;;;5134988;27;20497;-72
2023/03/21 02:55:31;;;;;;;71.90;49.72;;;;;;;;;;5135197;27;20031;-72
2023/03/21 02:57:58;;;;;;;74.85;51.22;;;;;;;;;;5135321;27;20135;-73
2023/03/21 03:00:31;;;;;;;72.18;49.45;;;;;;;;;;5135337;27;20038;-72
2023/03/21 03:02:57;;;;;;;76.40;53.05;;;;;;;;;;5135187;27;20099;-72
2023/03/21 03:05:24;;;;;;;72.80;49.97;;;;;;;;;;5135121;27;20031;-72
2023/03/21 03:07:50;;;;;;;74.80;52.22;;;;;;;;;;5134861;27;20034;-73
2023/03/21 03:10:19;;;;;;;78.47;53.42;;;;;;;;;;5134928;27;20110;-73
2023/03/21 03:12:51;;;;;;;80.32;51.28;;;;;;;;;;5134898;27;20023;-72
2023/03/21 03:15:28;;;;;;;81.53;54.15;;;;;;;;;;5134802;27;20547;-73
2023/03/21 03:18:13;;;;;;;75.68;52.78;;;;;;;;;;5135672;27;20102;-71
2023/03/21 03:20:49;;;;;;;76.35;52.25;;;;;;;;;;5134749;27;20059;-72
2023/03/21 03:23:34;;;;;;;79.90;54.42;;;;;;;;;;5134541;27;20076;-72
2023/03/21 03:26:07;;;;;;;76.57;52.88;;;;;;;;;;5134558;27;20061;-72
2023/03/21 03:28:36;;;;;;;75.93;52.55;;;;;;;;;;5134749;27;20030;-72
2023/03/21 03:31:04;;;;;;;79.65;53.22;;;;;;;;;;5134720;27;20015;-72
2023/03/21 03:33:30;;;;;;;79.32;52.83;;;;;;;;;;5127316;27;20016;-71
2023/03/21 03:35:59;;;;;;;69.70;50.05;;;;;;;;;;5121565;27;20538;-72
2023/03/21 03:38:26;;;;;;;75.53;52.08;;;;;;;;;;5114464;28;20027;-72
2023/03/21 03:40:58;;;;;;;76.80;52.03;;;;;;;;;;5113916;28;20036;-72
2023/03/21 03:43:29;;;;;;;78.32;53.13;;;;;;;;;;5113645;28;20034;-71
2023/03/21 03:46:00;;;;;;;78.28;52.72;;;;;;;;;;5113763;28;20036;-72
2023/03/21 03:48:27;;;;;;;75.63;52.78;;;;;;;;;;5113865;28;20384;-72
2023/03/21 03:51:00;;;;;;;78.03;50.75;;;;;;;;;;5113722;28;20024;-71
2023/03/21 03:53:46;;;;;;;74.13;50.95;;;;;;;;;;5113542;28;20482;-73
2023/03/21 03:56:13;;;;;;;80.38;52.08;;;;;;;;;;5127328;27;20027;-72
2023/03/21 03:58:39;;;;;;;74.90;50.30;;;;;;;;;;5134043;27;20051;-72
2023/03/21 04:01:06;;;;;;;78.32;52.63;;;;;;;;;;5133825;27;20503;-72
2023/03/21 04:03:32;;;;;;;72.85;49.67;;;;;;;;;;5133746;27;20023;-72
2023/03/21 04:05:59;;;;;;;76.05;50.17;;;;;;;;;;5133226;27;20388;-71
2023/03/21 04:08:25;;;;;;;74.47;51.22;;;;;;;;;;5134083;27;20111;-72
2023/03/21 04:10:51;;;;;;;71.65;49.08;;;;;;;;;;5133826;27;20019;-72
2023/03/21 04:13:17;;;;;;;78.78;51.28;;;;;;;;;;5133472;27;20392;-72
2023/03/21 04:15:44;;;;;;;76.57;51.55;;;;;;;;;;5133435;27;20076;-71
2023/03/21 04:18:10;;;;;;;78.38;50.05;;;;;;;;;;5133791;27;20406;-72
2023/03/21 04:20:36;;;;;;;74.82;49.47;;;;;;;;;;5133229;27;20072;-70
2023/03/21 04:23:02;;;;;;;72.40;49.40;;;;;;;;;;5133422;27;20023;-71
2023/03/21 04:25:28;;;;;;;75.57;51.40;;;;;;;;;;5133753;27;20376;-72
2023/03/21 04:27:54;;;;;;;73.65;50.20;;;;;;;;;;5133784;27;20088;-73
2023/03/21 04:30:23;;;;;;;70.40;49.10;;;;;;;;;;5115282;27;20114;-73
2023/03/21 04:32:52;;;;;;;74.35;50.83;;;;;;;;;;5134443;27;20015;-72
2023/03/21 04:35:19;;;;;;;76.45;50.65;;;;;;;;;;5134151;27;20072;-73
2023/03/21 04:37:45;;;;;;;77.03;50.83;;;;;;;;;;5133726;27;20400;-72
2023/03/21 04:40:16;;;;;;;82.55;54.17;;;;;;;;;;5133437;27;20030;-72
2023/03/21 04:42:42;;;;;;;73.75;50.20;;;;;;;;;;5133232;27;20030;-72
2023/03/21 04:45:08;;;;;;;82.60;53.08;;;;;;;;;;5133007;27;20106;-73
2023/03/21 04:47:34;;;;;;;76.80;51.00;;;;;;;;;;5132561;27;20026;-72
2023/03/21 04:50:00;;;;;;;80.55;53.45;;;;;;;;;;5133024;27;20023;-73
2023/03/21 04:52:26;;;;;;;75.50;52.00;;;;;;;;;;5114872;27;20031;-74
2023/03/21 04:54:52;;;;;;;73.72;49.78;;;;;;;;;;5112562;28;20020;-74
2023/03/21 04:57:18;;;;;;;76.68;50.63;;;;;;;;;;5112311;28;20397;-73
2023/03/21 04:59:45;;;;;;;80.53;53.03;;;;;;;;;;5109896;28;20108;-73
2023/03/21 05:02:11;;;;;;;79.22;53.33;;;;;;;;;;5109169;27;20024;-73
2023/03/21 05:04:37;;;;;;;77.90;53.05;;;;;;;;;;5111940;28;20028;-74
2023/03/21 05:07:04;;;;;;;82.70;53.92;;;;;;;;;;5108239;28;20077;-73
2023/03/21 05:09:30;;;;;;;82.82;53.72;;;;;;;;;;5112460;28;20096;-74
2023/03/21 05:11:56;;;;;;;78.07;51.70;;;;;;;;;;5112084;28;20026;-75
2023/03/21 05:14:23;;;;;;;81.90;54.05;;;;;;;;;;5105075;28;20024;-74
2023/03/21 05:16:52;;;;;;;80.63;52.10;;;;;;;;;;5103462;28;20052;-74
2023/03/21 05:19:24;;;;;;;85.72;53.83;;;;;;;;;;5112132;28;20028;-71
2023/03/21 05:21:50;;;;;;;81.70;52.20;;;;;;;;;;5112170;28;20072;-71
2023/03/21 05:24:21;;;;;;;81.18;52.45;;;;;;;;;;5112122;28;20068;-71
2023/03/21 05:26:51;;;;;;;81.07;52.97;;;;;;;;;;5112418;28;20028;-71
2023/03/21 05:29:18;;;;;;;84.47;52.65;;;;;;;;;;5111674;28;20031;-70
2023/03/21 05:31:44;;;;;;;78.70;52.47;;;;;;;;;;5111525;28;20032;-70
2023/03/21 05:34:10;;;;;;;76.03;52.42;;;;;;;;;;5111995;28;20444;-71
2023/03/21 05:36:36;;;;;;;78.43;52.20;;;;;;;;;;5093674;28;20441;-71
2023/03/21 05:39:03;;;;;;;75.20;51.05;;;;;;;;;;5112075;28;20024;-73
2023/03/21 05:41:29;;;;;;;76.20;51.17;;;;;;;;;;5112120;28;20024;-73
2023/03/21 05:43:55;;;;;;;77.28;51.45;;;;;;;;;;5109461;28;20031;-74
2023/03/21 05:46:21;;;;;;;74.07;49.30;;;;;;;;;;5108808;28;20028;-73
2023/03/21 05:48:46;;;;;;;75.07;50.88;;;;;;;;;;5111081;28;20471;-76
2023/03/21 05:51:12;;;;;;;74.50;50.85;;;;;;;;;;5111468;28;20032;-74
2023/03/21 05:53:39;;;;;;;73.55;50.05;;;;;;;;;;5107642;28;20107;-74
2023/03/21 05:56:05;;;;;;;67.43;46.97;;;;;;;;;;5111627;28;20046;-73
2023/03/21 05:58:31;;;;;;;61.28;44.25;;;;;;;;;;5114727;28;20023;-76
2023/03/21 06:00:57;;;;;;;61.95;44.58;;;;;;;;;;5130490;28;20303;-73
2023/03/21 06:03:23;;;;;;;57.15;42.42;;;;;;;;;;5115649;28;20020;-74
2023/03/21 06:05:49;;;;;;;59.03;42.92;;;;;;;;;;5116075;28;20027;-71
2023/03/21 06:08:15;;;;;;;57.60;42.72;;;;;;;;;;5115688;28;20461;-73
2023/03/21 06:10:41;;;;;;;58.35;42.63;;;;;;;;;;5115135;28;20023;-72
2023/03/21 06:13:07;;;;;;;53.70;41.08;;;;;;;;;;5115148;28;20015;-74
2023/03/21 06:15:33;;;;;;;62.10;42.05;;;;;;;;;;5115802;28;20098;-71
2023/03/21 06:17:59;;;;;;;52.38;39.55;;;;;;;;;;5115382;28;20529;-71
2023/03/21 06:20:25;;;;;;;56.88;41.90;;;;;;;;;;5115993;28;20127;-73
2023/03/21 06:22:51;;;;;;;54.80;39.92;;;;;;;;;;5115785;28;20503;-71
2023/03/21 06:25:17;;;;;;;55.25;41.90;;;;;;;;;;5116449;28;20055;-74
2023/03/21 06:27:43;;;;;;;54.33;39.70;;;;;;;;;;5115726;28;20051;-73
2023/03/21 06:30:09;;;;;;;55.35;40.83;;;;;;;;;;5115556;28;20067;-73
2023/03/21 06:32:35;;;;;;;53.95;39.70;;;;;;;;;;5112853;28;20047;-74
2023/03/21 06:35:01;;;;;;;55.92;41.35;;;;;;;;;;5115451;28;20473;-73
2023/03/21 06:37:27;;;;;;;54.55;40.58;;;;;;;;;;5105003;28;20049;-73
2023/03/21 06:39:53;;;;;;;59.90;40.83;;;;;;;;;;5112486;28;20030;-74
2023/03/21 06:42:19;;;;;;;55.38;40.25;;;;;;;;;;5112167;27;20030;-74
2023/03/21 06:44:45;;;;;;;58.08;41.83;;;;;;;;;;5106778;28;20024;-74
2023/03/21 06:47:11;;;;;;;55.08;39.88;;;;;;;;;;5113468;28;20038;-73
2023/03/21 06:49:38;;;;;;;60.00;41.22;;;;;;;;;;5114755;28;20024;-73
2023/03/21 06:52:04;;;;;;;62.75;43.00;;;;;;;;;;5114599;28;20112;-74
2023/03/21 06:54:30;;;;;;;58.58;41.60;;;;;;;;;;5114683;28;20028;-75
2023/03/21 06:56:56;;;;;;;59.65;40.88;;;;;;;;;;5114733;28;20020;-76
2023/03/21 06:59:22;;;;;;;65.05;43.22;;;;;;;;;;5113491;28;20050;-76
2023/03/21 07:01:48;;;;;;;59.38;42.08;;;;;;;;;;5114087;28;20031;-73
2023/03/21 07:04:14;;;;;;;68.65;44.80;;;;;;;;;;5114380;28;20084;-73
2023/03/21 07:06:40;;;;;;;66.97;44.13;;;;;;;;;;5110680;28;20032;-75
2023/03/21 07:09:06;;;;;;;63.45;44.13;;;;;;;;;;5113600;28;20392;-75
2023/03/21 07:11:32;;;;;;;67.50;44.03;;;;;;;;;;5114734;28;20045;-76
2023/03/21 07:13:58;;;;;;;66.00;44.75;;;;;;;;;;5112860;28;20031;-74
2023/03/21 07:16:24;;;;;;;69.68;45.47;;;;;;;;;;5114137;28;20034;-72
2023/03/21 07:18:51;;;;;;;71.18;45.63;;;;;;;;;;5114268;28;20103;-75
2023/03/21 07:21:17;;;;;;;72.32;46.15;;;;;;;;;;5114109;28;20081;-73
2023/03/21 07:23:43;;;;;;;73.80;45.42;;;;;;;;;;5114068;28;20070;-74
2023/03/21 07:26:09;;;;;;;71.20;46.83;;;;;;;;;;5114287;28;20055;-75
2023/03/21 07:28:35;;;;;;;69.85;47.30;;;;;;;;;;5113808;28;20032;-75
2023/03/21 07:31:03;;;;;;;67.93;45.10;;;;;;;;;;5110543;28;20023;-73
2023/03/21 07:33:29;;;;;;;71.85;46.92;;;;;;;;;;5103781;28;20023;-74
2023/03/21 07:35:56;;;;;;;68.97;44.83;;;;;;;;;;5094321;28;20031;-73
2023/03/21 07:38:23;;;;;;;69.68;44.63;;;;;;;;;;5110357;28;20076;-74
2023/03/21 07:40:49;;;;;;;77.35;46.92;;;;;;;;;;5113660;28;20206;-73
2023/03/21 07:43:16;;;;;;;74.07;46.97;;;;;;;;;;5112777;28;20023;-72
2023/03/21 07:45:42;;;;;;;75.95;47.40;;;;;;;;;;5119740;28;20029;-76
2023/03/21 07:48:09;;;;;;;81.38;48.00;;;;;;;;;;5113423;28;20031;-73
2023/03/21 07:50:35;;;;;;;76.07;46.15;;;;;;;;;;5113394;28;20053;-74
2023/03/21 07:53:01;;;;;;;78.78;49.13;;;;;;;;;;5112557;28;20031;-73
2023/03/21 07:55:27;;;;;;;90.10;50.38;;;;;;;;;;5111143;28;20027;-74
2023/03/21 07:57:53;;;;;;;88.03;49.38;;;;;;;;;;5112327;28;20033;-75
2023/03/21 08:00:23;;;;;;;87.72;51.50;;;;;;;;;;5112447;28;20086;-78
2023/03/21 08:02:53;;;;;;;92.97;51.90;;;;;;;;;;5108522;28;20442;-75
2023/03/21 08:05:19;;;;;;;94.57;53.25;;;;;;;;;;5116559;28;20416;-75
2023/03/21 08:07:46;;;;;;;101.97;55.10;;;;;;;;;;5107538;28;20088;-75
2023/03/21 08:10:12;;;;;;;110.97;58.05;;;;;;;;;;5114751;28;20031;-75
2023/03/21 08:12:38;;;;;;;102.93;56.45;;;;;;;;;;5103489;28;20034;-73
2023/03/21 08:15:05;;;;;;;105.50;53.58;;;;;;;;;;5112775;28;20028;-75
2023/03/21 08:17:31;;;;;;;100.35;53.47;;;;;;;;;;5112369;28;20047;-75
2023/03/21 08:19:57;;;;;;;104.13;53.47;;;;;;;;;;5112378;28;20084;-75
2023/03/21 08:22:22;;;;;;;98.43;52.33;;;;;;;;;;5112146;28;20034;-72
2023/03/21 08:24:48;;;;;;;95.82;52.72;;;;;;;;;;5112179;28;20023;-72
2023/03/21 08:27:15;;;;;;;100.05;53.78;;;;;;;;;;5112321;28;20067;-72
2023/03/21 08:29:41;;;;;;;101.35;57.13;;;;;;;;;;5112361;28;20028;-74
2023/03/21 08:32:07;;;;;;;95.15;53.35;;;;;;;;;;5109297;28;20022;-72
2023/03/21 08:34:34;;;;;;;104.82;53.72;;;;;;;;;;5111856;28;20142;-72
2023/03/21 08:37:00;;;;;;;96.70;52.67;;;;;;;;;;5127734;27;20054;-72
2023/03/21 08:39:27;;;;;;;95.95;50.97;;;;;;;;;;5132839;27;20022;-73
2023/03/21 08:41:53;;;;;;;100.30;53.22;;;;;;;;;;5132057;27;20599;-71
2023/03/21 08:44:20;;;;;;;95.72;53.03;;;;;;;;;;5132546;27;20055;-76
2023/03/21 08:46:46;;;;;;;89.45;47.88;;;;;;;;;;5132088;27;20118;-71
2023/03/21 08:49:12;;;;;;;89.90;49.72;;;;;;;;;;5131830;27;20030;-75
2023/03/21 08:51:40;;;;;;;86.70;49.75;;;;;;;;;;5131722;27;20027;-71
2023/03/21 08:54:06;;;;;;;93.75;49.28;;;;;;;;;;5132717;27;20095;-72
2023/03/21 08:56:32;;;;;;;94.13;50.90;;;;;;;;;;5132555;27;20657;-73
2023/03/21 08:59:01;;;;;;;92.30;50.60;;;;;;;;;;5133293;27;20121;-72
2023/03/21 09:01:27;;;;;;;102.50;52.63;;;;;;;;;;5132924;27;20353;-73
2023/03/21 09:03:53;;;;;;;96.97;51.17;;;;;;;;;;5114300;27;20022;-70
2023/03/21 09:06:19;;;;;;;106.50;52.60;;;;;;;;;;5132248;27;20110;-73
2023/03/21 09:08:45;;;;;;;101.97;53.13;;;;;;;;;;5133269;27;20042;-72
2023/03/21 09:11:11;;;;;;;100.00;51.88;;;;;;;;;;5132849;27;20102;-74
2023/03/21 09:13:37;;;;;;;99.18;52.45;;;;;;;;;;5132742;27;20388;-72
2023/03/21 09:16:04;;;;;;;108.90;53.88;;;;;;;;;;5132441;27;20030;-71
2023/03/21 09:21:27;;;;;;;109.85;54.15;;;;;;;;;;5114574;27;20031;-72
2023/03/21 09:23:55;;;;;;;112.10;53.22;;;;;;;;;;5132347;27;20023;-71
2023/03/21 09:26:22;;;;;;;99.90;50.90;;;;;;;;;;5132774;27;20015;-71
2023/03/21 09:28:48;;;;;;;104.18;52.13;;;;;;;;;;5132526;27;20079;-73
2023/03/21 09:31:20;;;;;;;97.38;50.83;;;;;;;;;;5132416;27;20165;-73
2023/03/21 09:33:46;;;;;;;106.75;50.30;;;;;;;;;;5132640;27;20098;-73
2023/03/21 09:36:13;;;;;;;109.82;54.00;;;;;;;;;;5132692;28;20019;-71
2023/03/21 09:38:44;;;;;;;133.63;64.43;;;;;;;;;;5132739;28;20031;-71
2023/03/21 09:41:29;;;;;;;108.47;51.63;;;;;;;;;;5132673;28;20482;-71
2023/03/21 09:44:13;;;;;;;109.70;51.70;;;;;;;;;;5132397;28;20488;-72
2023/03/21 09:46:48;;;;;;;103.28;52.08;;;;;;;;;;5132790;27;20030;-74
2023/03/21 09:49:17;;;;;;;106.45;51.00;;;;;;;;;;5132648;28;20498;-72
2023/03/21 09:51:51;;;;;;;95.55;48.83;;;;;;;;;;5132468;28;20019;-74
2023/03/21 09:54:21;;;;;;;106.10;50.17;;;;;;;;;;5133605;27;20015;-74
2023/03/21 09:56:49;;;;;;;93.30;49.47;;;;;;;;;;5132715;28;20023;-74
2023/03/21 09:59:23;;;;;;;95.13;47.30;;;;;;;;;;5132798;28;20519;-72
2023/03/21 10:01:49;;;;;;;97.10;49.17;;;;;;;;;;5132431;28;20452;-74
2023/03/21 10:04:17;;;;;;;89.07;46.33;;;;;;;;;;5132376;28;20541;-73
2023/03/21 10:06:44;;;;;;;90.22;49.20;;;;;;;;;;5132194;28;20083;-72
2023/03/21 10:09:22;;;;;;;89.95;44.83;;;;;;;;;;5132777;28;20019;-74
2023/03/21 10:12:11;;;;;;;80.72;45.33;;;;;;;;;;5132181;28;20020;-73
2023/03/21 10:14:39;;;;;;;77.20;43.63;;;;;;;;;;5132511;28;20519;-72
2023/03/21 10:17:30;;;;;;;81.07;43.95;;;;;;;;;;5132121;28;20028;-72
2023/03/21 10:20:10;;;;;;;74.70;42.63;;;;;;;;;;5120585;27;20091;-71
2023/03/21 10:22:37;;;;;;;68.03;40.28;;;;;;;;;;5132052;28;20106;-72
2023/03/21 10:25:03;;;;;;;75.10;43.63;;;;;;;;;;5132354;28;20079;-70
2023/03/21 10:27:29;;;;;;;68.55;39.25;;;;;;;;;;5132012;27;20152;-71
2023/03/21 10:29:56;;;;;;;67.53;38.03;;;;;;;;;;5131907;28;20027;-72
2023/03/21 10:32:22;;;;;;;61.75;38.15;;;;;;;;;;5132082;28;20030;-71
2023/03/21 10:34:54;;;;;;;58.67;37.05;;;;;;;;;;5132281;28;20020;-73
2023/03/21 10:37:21;;;;;;;63.95;36.25;;;;;;;;;;5132472;28;20027;-75
2023/03/21 10:39:48;;;;;;;62.45;36.10;;;;;;;;;;5132334;28;20027;-74
2023/03/21 10:42:18;;;;;;;57.83;34.78;;;;;;;;;;5131663;28;20023;-73
2023/03/21 10:44:46;;;;;;;53.38;33.33;;;;;;;;;;5133948;27;20019;-71
2023/03/21 10:47:18;;;;;;;65.40;40.10;;;;;;;;;;5135367;27;20023;-72
2023/03/21 10:49:46;;;;;;;59.63;36.50;;;;;;;;;;5136254;27;20046;-74
2023/03/21 10:52:13;;;;;;;65.22;35.28;;;;;;;;;;5135175;27;20492;-73
2023/03/21 10:54:39;;;;;;;61.88;34.90;;;;;;;;;;5135752;27;20474;-72
2023/03/21 10:57:07;;;;;;;57.22;35.35;;;;;;;;;;5135679;27;20038;-72
2023/03/21 10:59:39;;;;;;;59.38;34.92;;;;;;;;;;5136326;27;20023;-73
2023/03/21 11:02:06;;;;;;;58.65;36.08;;;;;;;;;;5136441;27;20146;-72
2023/03/21 11:04:32;;;;;;;53.78;35.55;;;;;;;;;;5136416;27;20024;-75
2023/03/21 11:07:00;;;;;;;62.03;37.08;;;;;;;;;;5136955;27;20035;-73
2023/03/21 11:09:43;;;;;;;58.72;36.38;;;;;;;;;;5136816;27;20027;-74
2023/03/21 11:12:10;;;;;;;65.63;39.22;;;;;;;;;;5135379;27;20016;-73
2023/03/21 11:14:38;;;;;;;61.40;36.78;;;;;;;;;;5135294;27;20020;-71
2023/03/21 11:17:33;;;;;;;67.07;38.03;;;;;;;;;;5135385;27;20414;-72
2023/03/21 11:20:04;;;;;;;65.53;39.28;;;;;;;;;;5113627;27;20045;-72
2023/03/21 11:22:36;;;;;;;60.58;37.22;;;;;;;;;;5117713;27;20023;-71
2023/03/21 11:25:05;;;;;;;64.95;37.35;;;;;;;;;;5103229;28;20024;-73
2023/03/21 11:27:31;;;;;;;55.75;36.47;;;;;;;;;;5111534;28;20027;-74
2023/03/21 11:29:58;;;;;;;60.33;36.53;;;;;;;;;;5109236;28;20376;-76
2023/03/21 11:32:35;;;;;;;57.13;36.10;;;;;;;;;;5114611;28;20252;-72
2023/03/21 11:35:01;;;;;;;61.63;36.47;;;;;;;;;;5112675;28;20098;-73
2023/03/21 11:37:27;;;;;;;60.38;36.85;;;;;;;;;;5111575;28;20493;-72
2023/03/21 11:40:04;;;;;;;60.05;37.13;;;;;;;;;;5113784;28;20023;-74
2023/03/21 11:42:31;;;;;;;53.95;33.80;;;;;;;;;;5113341;28;20382;-72
2023/03/21 11:45:02;;;;;;;57.92;33.80;;;;;;;;;;5113280;28;20023;-73
2023/03/21 11:47:28;;;;;;;53.95;35.38;;;;;;;;;;5113728;28;20031;-72
2023/03/21 11:49:55;;;;;;;55.75;33.70;;;;;;;;;;5106185;28;20023;-72
2023/03/21 11:52:40;;;;;;;51.00;31.42;;;;;;;;;;5109774;28;20149;-72
2023/03/21 11:55:18;;;;;;;63.92;36.83;;;;;;;;;;5108330;28;20023;-73
2023/03/21 11:57:57;;;;;;;57.60;32.88;;;;;;;;;;5107341;28;20026;-72
2023/03/21 12:00:29;;;;;;;49.15;32.05;;;;;;;;;;5111361;28;20373;-72
2023/03/21 12:03:07;;;;;;;50.75;31.15;;;;;;;;;;5106059;28;20027;-74
2023/03/21 12:05:59;;;;;;;52.30;31.75;;;;;;;;;;5109299;28;20020;-73
2023/03/21 12:08:41;;;;;;;52.15;31.08;;;;;;;;;;5089610;28;20528;-73
2023/03/21 12:11:17;;;;;;;50.95;30.80;;;;;;;;;;5093197;28;20024;-73
2023/03/21 12:13:51;;;;;;;48.70;30.35;;;;;;;;;;5092951;28;20490;-72
2023/03/21 12:16:21;;;;;;;47.25;29.55;;;;;;;;;;5093027;28;20031;-74
2023/03/21 12:19:06;;;;;;;57.78;34.95;;;;;;;;;;5079226;28;20150;-73
2023/03/21 12:21:48;;;;;;;42.97;28.15;;;;;;;;;;5113369;28;20020;-72
2023/03/21 12:24:17;;;;;;;43.00;27.88;;;;;;;;;;5113282;28;20424;-72
2023/03/21 12:26:46;;;;;;;41.60;25.98;;;;;;;;;;5113469;28;20038;-73
2023/03/21 12:29:20;;;;;;;43.60;28.20;;;;;;;;;;5113146;28;20043;-72
2023/03/21 12:32:01;;;;;;;41.83;27.25;;;;;;;;;;5112900;28;20055;-72
2023/03/21 12:34:27;;;;;;;44.65;25.77;;;;;;;;;;5113015;28;20047;-72
2023/03/21 12:36:57;;;;;;;39.97;25.67;;;;;;;;;;5113047;28;20052;-73
2023/03/21 12:39:23;;;;;;;42.53;26.17;;;;;;;;;;5112853;28;20024;-73
2023/03/21 12:42:07;;;;;;;43.65;24.83;;;;;;;;;;5112524;28;20484;-72
2023/03/21 12:44:35;;;;;;;43.93;27.87;;;;;;;;;;5112813;28;20015;-72
2023/03/21 12:47:02;;;;;;;36.03;22.35;;;;;;;;;;5112818;28;20400;-72
2023/03/21 12:49:28;;;;;;;36.25;22.38;;;;;;;;;;5112704;28;20023;-73
2023/03/21 12:52:01;;;;;;;33.80;20.70;;;;;;;;;;5112584;28;20027;-72
2023/03/21 12:54:42;;;;;;;39.00;22.15;;;;;;;;;;5112958;28;20389;-72
2023/03/21 12:57:10;;;;;;;35.85;22.88;;;;;;;;;;5113132;28;20205;-73
2023/03/21 12:59:36;;;;;;;31.75;20.33;;;;;;;;;;5113408;28;20035;-73
2023/03/21 13:02:16;;;;;;;38.40;21.20;;;;;;;;;;5112632;28;20020;-72
2023/03/21 13:05:03;;;;;;;30.70;20.95;;;;;;;;;;5110403;28;20023;-72
2023/03/21 13:07:31;;;;;;;36.80;24.23;;;;;;;;;;5111521;28;20023;-71
2023/03/21 13:09:58;;;;;;;36.22;21.80;;;;;;;;;;5091945;28;20055;-71
2023/03/21 13:13:02;;;;;;;30.80;20.42;;;;;;;;;;5091873;28;20038;-76
2023/03/21 13:15:32;;;;;;;37.17;19.45;;;;;;;;;;5049424;28;20108;-71
2023/03/21 13:17:58;;;;;;;28.85;19.35;;;;;;;;;;5049374;28;20569;-72
2023/03/21 13:20:24;;;;;;;31.58;21.95;;;;;;;;;;5070885;28;20040;-73
2023/03/21 13:22:50;;;;;;;31.55;21.58;;;;;;;;;;5094116;28;20050;-72
2023/03/21 13:25:17;;;;;;;28.17;19.92;;;;;;;;;;5112366;28;20474;-74
2023/03/21 13:27:49;;;;;;;25.90;18.80;;;;;;;;;;5112292;28;20030;-74
2023/03/21 13:30:25;;;;;;;31.63;20.23;;;;;;;;;;5111715;28;20081;-71
2023/03/21 13:32:54;;;;;;;29.15;19.17;;;;;;;;;;5111525;28;20578;-73
2023/03/21 13:35:26;;;;;;;31.08;19.92;;;;;;;;;;5112242;28;20024;-72
2023/03/21 13:38:04;;;;;;;26.77;17.95;;;;;;;;;;5112029;28;20022;-73
2023/03/21 13:40:45;;;;;;;27.73;18.83;;;;;;;;;;5111891;28;20447;-72
2023/03/21 13:43:30;;;;;;;28.13;17.40;;;;;;;;;;5111527;28;20051;-73
2023/03/21 13:45:56;;;;;;;25.65;17.80;;;;;;;;;;5113977;28;20031;-76
2023/03/21 13:48:29;;;;;;;28.60;18.08;;;;;;;;;;5118805;28;20023;-73
2023/03/21 13:51:03;;;;;;;28.77;19.27;;;;;;;;;;5118902;28;20415;-71
2023/03/21 13:53:35;;;;;;;30.88;20.38;;;;;;;;;;5110487;28;20019;-72
2023/03/21 13:56:14;;;;;;;34.50;18.95;;;;;;;;;;5111808;28;20485;-71
2023/03/21 13:58:43;;;;;;;31.35;20.85;;;;;;;;;;5111893;28;20034;-76
2023/03/21 14:01:30;;;;;;;35.33;20.58;;;;;;;;;;5109253;28;20055;-72
2023/03/21 14:03:58;;;;;;;30.73;20.35;;;;;;;;;;5108274;28;20016;-74
2023/03/21 14:06:30;;;;;;;36.92;20.95;;;;;;;;;;5111508;28;20438;-72
2023/03/21 14:08:57;;;;;;;28.70;19.13;;;;;;;;;;5111421;28;20027;-73
2023/03/21 14:11:23;;;;;;;26.13;18.27;;;;;;;;;;5106352;28;20038;-73
2023/03/21 14:13:49;;;;;;;28.70;17.80;;;;;;;;;;5112009;28;20457;-71
2023/03/21 14:16:16;;;;;;;27.88;18.95;;;;;;;;;;5111589;28;20045;-71
2023/03/21 14:18:47;;;;;;;32.05;18.10;;;;;;;;;;5107104;28;20035;-75
2023/03/21 14:21:24;;;;;;;26.60;16.75;;;;;;;;;;5115710;28;20031;-73
2023/03/21 14:23:56;;;;;;;26.67;16.50;;;;;;;;;;5108087;28;20022;-72
2023/03/21 14:26:23;;;;;;;28.05;17.00;;;;;;;;;;5115494;28;20492;-71
2023/03/21 14:28:50;;;;;;;26.90;18.70;;;;;;;;;;5114875;28;20383;-72
2023/03/21 14:31:18;;;;;;;24.27;17.10;;;;;;;;;;5109985;28;20035;-73